sensor_id;sensor_type;location;lat;lon;timestamp;temperature;humidity
48994;DHT22;34804;49.214;12.276;2022-12-11T00:00:47;-3275.50;89.80
48994;DHT22;34804;49.214;12.276;2022-12-11T00:03:15;-3275.50;89.80
48994;DHT22;34804;49.214;12.276;2022-12-11T00:05:44;-3275.50;89.90
48994;DHT22;34804;49.214;12.276;2022-12-11T00:08:12;-3275.50;90.00
48994;DHT22;34804;49.214;12.276;2022-12-11T00:10:39;-3275.50;90.00
48994;DHT22;34804;49.214;12.276;2022-12-11T00:13:05;-3275.40;90.20
48994;DHT22;34804;49.214;12.276;2022-12-11T00:15:33;-3275.50;90.10
48994;DHT22;34804;49.214;12.276;2022-12-11T00:18:00;-3275.60;90.00
48994;DHT22;34804;49.214;12.276;2022-12-11T00:20:27;-3275.70;89.90
48994;DHT22;34804;49.214;12.276;2022-12-11T00:22:54;-3275.60;90.30
48994;DHT22;34804;49.214;12.276;2022-12-11T00:25:21;-3275.60;90.80
48994;DHT22;34804;49.214;12.276;2022-12-11T00:27:48;-3275.50;91.00
48994;DHT22;34804;49.214;12.276;2022-12-11T00:30:15;-3275.60;91.10
48994;DHT22;34804;49.214;12.276;2022-12-11T00:32:41;-3275.50;91.20
48994;DHT22;34804;49.214;12.276;2022-12-11T00:35:09;-3275.60;91.30
48994;DHT22;34804;49.214;12.276;2022-12-11T00:37:37;-3275.50;91.00
48994;DHT22;34804;49.214;12.276;2022-12-11T00:40:04;-3275.60;90.80
48994;DHT22;34804;49.214;12.276;2022-12-11T00:42:31;-3275.50;90.60
48994;DHT22;34804;49.214;12.276;2022-12-11T00:44:58;-3275.50;90.40
48994;DHT22;34804;49.214;12.276;2022-12-11T00:47:24;-3275.40;90.50
48994;DHT22;34804;49.214;12.276;2022-12-11T00:49:51;-3275.40;90.40
48994;DHT22;34804;49.214;12.276;2022-12-11T00:52:18;-3275.40;90.20
48994;DHT22;34804;49.214;12.276;2022-12-11T00:54:45;-3275.30;90.10
48994;DHT22;34804;49.214;12.276;2022-12-11T00:57:11;-3275.30;90.10
48994;DHT22;34804;49.214;12.276;2022-12-11T00:59:38;-3275.20;89.90
48994;DHT22;34804;49.214;12.276;2022-12-11T01:02:05;-3275.10;89.90
48994;DHT22;34804;49.214;12.276;2022-12-11T01:04:34;-3274.90;90.30
48994;DHT22;34804;49.214;12.276;2022-12-11T01:07:02;-3274.90;90.70
48994;DHT22;34804;49.214;12.276;2022-12-11T01:09:28;-3274.90;90.40
48994;DHT22;34804;49.214;12.276;2022-12-11T01:12:14;-3274.90;90.70
48994;DHT22;34804;49.214;12.276;2022-12-11T01:14:41;-3274.80;90.90
48994;DHT22;34804;49.214;12.276;2022-12-11T01:17:07;-3274.80;91.10
48994;DHT22;34804;49.214;12.276;2022-12-11T01:19:34;-3274.80;91.10
48994;DHT22;34804;49.214;12.276;2022-12-11T01:22:01;-3274.80;91.20
48994;DHT22;34804;49.214;12.276;2022-12-11T01:24:28;-3274.70;91.20
48994;DHT22;34804;49.214;12.276;2022-12-11T01:26:55;-3274.80;91.40
48994;DHT22;34804;49.214;12.276;2022-12-11T01:29:21;-3274.80;91.40
48994;DHT22;34804;49.214;12.276;2022-12-11T01:31:48;-3274.80;91.50
48994;DHT22;34804;49.214;12.276;2022-12-11T01:34:15;-3274.80;91.50
48994;DHT22;34804;49.214;12.276;2022-12-11T01:36:42;-3274.90;91.40
48994;DHT22;34804;49.214;12.276;2022-12-11T01:39:09;-3274.90;91.50
48994;DHT22;34804;49.214;12.276;2022-12-11T01:41:36;-3274.90;91.50
48994;DHT22;34804;49.214;12.276;2022-12-11T01:46:42;-3275.00;91.50
48994;DHT22;34804;49.214;12.276;2022-12-11T01:49:11;-3275.00;91.50
48994;DHT22;34804;49.214;12.276;2022-12-11T01:51:52;-3275.00;91.40
48994;DHT22;34804;49.214;12.276;2022-12-11T01:54:23;-3275.10;91.30
48994;DHT22;34804;49.214;12.276;2022-12-11T01:56:52;-3275.10;91.30
48994;DHT22;34804;49.214;12.276;2022-12-11T01:59:24;-3275.10;91.30
48994;DHT22;34804;49.214;12.276;2022-12-11T02:02:03;-3275.10;91.30
48994;DHT22;34804;49.214;12.276;2022-12-11T02:04:34;-3275.10;91.40
48994;DHT22;34804;49.214;12.276;2022-12-11T02:07:02;-3275.20;91.40
48994;DHT22;34804;49.214;12.276;2022-12-11T02:09:32;-3275.20;91.30
48994;DHT22;34804;49.214;12.276;2022-12-11T02:17:56;-3275.40;90.90
48994;DHT22;34804;49.214;12.276;2022-12-11T02:31:23;-3275.40;91.00
48994;DHT22;34804;49.214;12.276;2022-12-11T02:36:39;-3275.40;90.80
48994;DHT22;34804;49.214;12.276;2022-12-11T02:39:09;-3275.40;90.80
48994;DHT22;34804;49.214;12.276;2022-12-11T02:41:40;-3275.40;90.80
48994;DHT22;34804;49.214;12.276;2022-12-11T02:44:10;-3275.30;90.80
48994;DHT22;34804;49.214;12.276;2022-12-11T02:46:38;-3275.30;90.70
48994;DHT22;34804;49.214;12.276;2022-12-11T02:49:05;-3275.20;90.80
48994;DHT22;34804;49.214;12.276;2022-12-11T02:51:37;-3275.20;91.00
48994;DHT22;34804;49.214;12.276;2022-12-11T02:54:13;-3275.10;91.10
48994;DHT22;34804;49.214;12.276;2022-12-11T02:56:57;-3275.00;91.10
48994;DHT22;34804;49.214;12.276;2022-12-11T02:59:35;-3275.00;91.00
48994;DHT22;34804;49.214;12.276;2022-12-11T03:02:02;-3274.90;91.00
48994;DHT22;34804;49.214;12.276;2022-12-11T03:04:30;-3274.90;91.00
48994;DHT22;34804;49.214;12.276;2022-12-11T03:07:01;-3274.80;90.90
48994;DHT22;34804;49.214;12.276;2022-12-11T03:09:32;-3274.80;91.00
48994;DHT22;34804;49.214;12.276;2022-12-11T03:12:01;-3274.70;91.00
48994;DHT22;34804;49.214;12.276;2022-12-11T03:14:28;-3274.70;91.10
48994;DHT22;34804;49.214;12.276;2022-12-11T03:17:13;-3274.60;90.90
48994;DHT22;34804;49.214;12.276;2022-12-11T03:22:46;-3274.50;90.90
48994;DHT22;34804;49.214;12.276;2022-12-11T03:25:19;-3274.40;91.00
48994;DHT22;34804;49.214;12.276;2022-12-11T03:27:58;-3274.30;91.10
48994;DHT22;34804;49.214;12.276;2022-12-11T03:30:30;-3274.30;91.10
48994;DHT22;34804;49.214;12.276;2022-12-11T03:33:05;-3274.20;91.10
48994;DHT22;34804;49.214;12.276;2022-12-11T03:35:39;-3274.10;91.20
48994;DHT22;34804;49.214;12.276;2022-12-11T03:38:16;-3274.00;91.40
48994;DHT22;34804;49.214;12.276;2022-12-11T03:40:45;-3274.00;91.40
48994;DHT22;34804;49.214;12.276;2022-12-11T03:43:15;-3274.00;91.40
48994;DHT22;34804;49.214;12.276;2022-12-11T03:45:44;-3273.80;91.40
48994;DHT22;34804;49.214;12.276;2022-12-11T03:48:12;-3273.80;91.50
48994;DHT22;34804;49.214;12.276;2022-12-11T03:50:41;-3273.70;91.30
48994;DHT22;34804;49.214;12.276;2022-12-11T03:53:09;-3273.70;91.70
48994;DHT22;34804;49.214;12.276;2022-12-11T03:55:36;-3273.70;92.10
48994;DHT22;34804;49.214;12.276;2022-12-11T03:58:05;-3273.70;91.90
48994;DHT22;34804;49.214;12.276;2022-12-11T04:00:31;-3273.70;91.80
48994;DHT22;34804;49.214;12.276;2022-12-11T04:02:58;-3273.60;91.90
48994;DHT22;34804;49.214;12.276;2022-12-11T04:05:43;-3273.50;92.10
48994;DHT22;34804;49.214;12.276;2022-12-11T04:08:10;-3273.50;92.00
48994;DHT22;34804;49.214;12.276;2022-12-11T04:10:38;-3273.50;92.00
48994;DHT22;34804;49.214;12.276;2022-12-11T04:13:06;-3273.50;92.00
48994;DHT22;34804;49.214;12.276;2022-12-11T04:15:33;-3273.40;92.00
48994;DHT22;34804;49.214;12.276;2022-12-11T04:18:00;-3273.30;92.00
48994;DHT22;34804;49.214;12.276;2022-12-11T04:20:45;-3273.40;92.20
48994;DHT22;34804;49.214;12.276;2022-12-11T04:23:31;-3273.30;92.10
48994;DHT22;34804;49.214;12.276;2022-12-11T04:26:18;-3273.30;92.40
48994;DHT22;34804;49.214;12.276;2022-12-11T04:28:46;-3273.30;92.30
48994;DHT22;34804;49.214;12.276;2022-12-11T04:31:19;-3273.30;92.30
48994;DHT22;34804;49.214;12.276;2022-12-11T04:33:46;-3273.20;92.30
48994;DHT22;34804;49.214;12.276;2022-12-11T04:36:14;-3273.20;92.40
48994;DHT22;34804;49.214;12.276;2022-12-11T04:38:41;-3273.20;92.40
48994;DHT22;34804;49.214;12.276;2022-12-11T04:41:11;-3273.20;92.40
48994;DHT22;34804;49.214;12.276;2022-12-11T04:43:38;-3273.10;92.40
48994;DHT22;34804;49.214;12.276;2022-12-11T04:46:20;-3273.10;92.40
48994;DHT22;34804;49.214;12.276;2022-12-11T04:48:48;-3273.00;92.10
48994;DHT22;34804;49.214;12.276;2022-12-11T04:51:22;-3273.00;92.50
48994;DHT22;34804;49.214;12.276;2022-12-11T04:53:49;-3272.90;92.50
48994;DHT22;34804;49.214;12.276;2022-12-11T04:56:16;-3272.80;92.30
48994;DHT22;34804;49.214;12.276;2022-12-11T04:58:44;-3272.90;92.60
48994;DHT22;34804;49.214;12.276;2022-12-11T05:01:21;-3272.90;92.40
48994;DHT22;34804;49.214;12.276;2022-12-11T05:03:48;-3272.80;92.20
48994;DHT22;34804;49.214;12.276;2022-12-11T05:06:15;-3272.80;92.20
48994;DHT22;34804;49.214;12.276;2022-12-11T05:08:42;-3272.80;92.30
48994;DHT22;34804;49.214;12.276;2022-12-11T05:11:11;-3272.70;92.20
48994;DHT22;34804;49.214;12.276;2022-12-11T05:13:38;-3272.70;92.20
48994;DHT22;34804;49.214;12.276;2022-12-11T05:16:06;-3272.70;92.20
48994;DHT22;34804;49.214;12.276;2022-12-11T05:18:33;-3272.70;92.20
48994;DHT22;34804;49.214;12.276;2022-12-11T05:21:03;-3272.70;92.40
48994;DHT22;34804;49.214;12.276;2022-12-11T05:23:30;-3272.70;92.40
48994;DHT22;34804;49.214;12.276;2022-12-11T05:25:59;-3272.70;92.60
48994;DHT22;34804;49.214;12.276;2022-12-11T05:28:32;-3272.80;92.70
48994;DHT22;34804;49.214;12.276;2022-12-11T05:31:07;-3272.80;92.50
48994;DHT22;34804;49.214;12.276;2022-12-11T05:33:37;-3272.80;92.50
48994;DHT22;34804;49.214;12.276;2022-12-11T05:36:04;-3272.70;92.50
48994;DHT22;34804;49.214;12.276;2022-12-11T05:38:31;-3272.70;92.60
48994;DHT22;34804;49.214;12.276;2022-12-11T05:41:00;-3272.80;92.80
48994;DHT22;34804;49.214;12.276;2022-12-11T05:43:29;-3272.80;92.80
48994;DHT22;34804;49.214;12.276;2022-12-11T05:46:07;-3272.80;92.80
48994;DHT22;34804;49.214;12.276;2022-12-11T05:48:35;-3272.90;92.90
48994;DHT22;34804;49.214;12.276;2022-12-11T05:51:03;-3272.90;92.70
48994;DHT22;34804;49.214;12.276;2022-12-11T05:53:30;-3273.00;92.80
48994;DHT22;34804;49.214;12.276;2022-12-11T05:56:06;-3273.10;92.80
48994;DHT22;34804;49.214;12.276;2022-12-11T05:58:33;-3273.10;92.70
48994;DHT22;34804;49.214;12.276;2022-12-11T06:01:01;-3273.00;92.70
48994;DHT22;34804;49.214;12.276;2022-12-11T06:03:28;-3273.10;92.80
48994;DHT22;34804;49.214;12.276;2022-12-11T06:05:55;-3273.10;92.40
48994;DHT22;34804;49.214;12.276;2022-12-11T06:08:21;-3273.00;92.20
48994;DHT22;34804;49.214;12.276;2022-12-11T06:10:49;-3272.90;92.10
48994;DHT22;34804;49.214;12.276;2022-12-11T06:13:16;-3272.90;92.30
48994;DHT22;34804;49.214;12.276;2022-12-11T06:15:43;-3272.80;92.50
48994;DHT22;34804;49.214;12.276;2022-12-11T06:18:09;-3272.90;92.40
48994;DHT22;34804;49.214;12.276;2022-12-11T06:20:36;-3272.80;92.20
48994;DHT22;34804;49.214;12.276;2022-12-11T06:23:03;-3272.80;92.30
48994;DHT22;34804;49.214;12.276;2022-12-11T06:25:30;-3272.70;92.40
48994;DHT22;34804;49.214;12.276;2022-12-11T06:27:57;-3272.70;92.50
48994;DHT22;34804;49.214;12.276;2022-12-11T06:30:24;-3272.70;92.50
48994;DHT22;34804;49.214;12.276;2022-12-11T06:33:05;-3272.70;92.40
48994;DHT22;34804;49.214;12.276;2022-12-11T06:35:32;-3272.70;92.40
48994;DHT22;34804;49.214;12.276;2022-12-11T06:38:08;-3272.60;92.10
48994;DHT22;34804;49.214;12.276;2022-12-11T06:40:39;-3272.60;92.10
48994;DHT22;34804;49.214;12.276;2022-12-11T06:43:13;-3272.50;91.90
48994;DHT22;34804;49.214;12.276;2022-12-11T06:45:40;-3272.60;92.10
48994;DHT22;34804;49.214;12.276;2022-12-11T06:48:07;-3272.60;92.00
48994;DHT22;34804;49.214;12.276;2022-12-11T06:50:33;-3272.60;91.70
48994;DHT22;34804;49.214;12.276;2022-12-11T06:53:00;-3272.60;91.70
48994;DHT22;34804;49.214;12.276;2022-12-11T06:55:27;-3272.50;91.60
48994;DHT22;34804;49.214;12.276;2022-12-11T06:57:54;-3272.50;91.90
48994;DHT22;34804;49.214;12.276;2022-12-11T07:00:21;-3272.50;91.50
48994;DHT22;34804;49.214;12.276;2022-12-11T07:02:49;-3272.40;91.50
48994;DHT22;34804;49.214;12.276;2022-12-11T07:05:16;-3272.40;91.60
48994;DHT22;34804;49.214;12.276;2022-12-11T07:07:43;-3272.50;91.70
48994;DHT22;34804;49.214;12.276;2022-12-11T07:10:10;-3272.60;92.00
48994;DHT22;34804;49.214;12.276;2022-12-11T07:12:37;-3272.60;92.20
48994;DHT22;34804;49.214;12.276;2022-12-11T07:15:04;-3272.70;92.20
48994;DHT22;34804;49.214;12.276;2022-12-11T07:17:31;-3272.70;92.20
48994;DHT22;34804;49.214;12.276;2022-12-11T07:19:58;-3272.70;92.30
48994;DHT22;34804;49.214;12.276;2022-12-11T07:22:25;-3272.80;92.30
48994;DHT22;34804;49.214;12.276;2022-12-11T07:24:51;-3272.80;92.20
48994;DHT22;34804;49.214;12.276;2022-12-11T07:27:18;-3272.80;92.30
48994;DHT22;34804;49.214;12.276;2022-12-11T07:29:45;-3272.90;92.30
48994;DHT22;34804;49.214;12.276;2022-12-11T07:32:11;-3273.00;92.30
48994;DHT22;34804;49.214;12.276;2022-12-11T07:34:38;-3273.10;92.30
48994;DHT22;34804;49.214;12.276;2022-12-11T07:37:05;-3273.20;92.60
48994;DHT22;34804;49.214;12.276;2022-12-11T07:39:32;-3273.40;92.50
48994;DHT22;34804;49.214;12.276;2022-12-11T07:41:59;-3273.50;92.20
48994;DHT22;34804;49.214;12.276;2022-12-11T07:44:25;-3273.60;91.90
48994;DHT22;34804;49.214;12.276;2022-12-11T07:46:52;-3273.60;92.00
48994;DHT22;34804;49.214;12.276;2022-12-11T07:49:19;-3273.70;91.80
48994;DHT22;34804;49.214;12.276;2022-12-11T07:51:46;-3273.70;91.70
48994;DHT22;34804;49.214;12.276;2022-12-11T07:54:14;-3273.70;91.50
48994;DHT22;34804;49.214;12.276;2022-12-11T07:56:44;-3273.70;91.70
48994;DHT22;34804;49.214;12.276;2022-12-11T07:59:18;-3273.80;91.80
48994;DHT22;34804;49.214;12.276;2022-12-11T08:01:46;-3273.90;91.70
48994;DHT22;34804;49.214;12.276;2022-12-11T08:04:13;-3274.00;91.60
48994;DHT22;34804;49.214;12.276;2022-12-11T08:06:41;-3274.00;91.60
48994;DHT22;34804;49.214;12.276;2022-12-11T08:09:10;-3274.10;91.80
48994;DHT22;34804;49.214;12.276;2022-12-11T08:11:48;-3274.30;91.90
48994;DHT22;34804;49.214;12.276;2022-12-11T08:14:16;-3274.50;92.10
48994;DHT22;34804;49.214;12.276;2022-12-11T08:16:43;-3274.70;91.70
48994;DHT22;34804;49.214;12.276;2022-12-11T08:19:11;-3274.70;90.30
48994;DHT22;34804;49.214;12.276;2022-12-11T08:21:38;-3274.80;90.30
48994;DHT22;34804;49.214;12.276;2022-12-11T08:24:05;-3274.90;90.60
48994;DHT22;34804;49.214;12.276;2022-12-11T08:26:32;-3274.90;90.30
48994;DHT22;34804;49.214;12.276;2022-12-11T08:29:00;-3274.90;90.60
48994;DHT22;34804;49.214;12.276;2022-12-11T08:31:28;-3274.90;90.40
48994;DHT22;34804;49.214;12.276;2022-12-11T08:33:55;-3274.80;90.20
48994;DHT22;34804;49.214;12.276;2022-12-11T08:36:23;-3274.70;90.10
48994;DHT22;34804;49.214;12.276;2022-12-11T08:38:50;-3274.70;90.30
48994;DHT22;34804;49.214;12.276;2022-12-11T08:41:25;-3274.70;90.50
48994;DHT22;34804;49.214;12.276;2022-12-11T08:43:54;-3274.80;90.60
48994;DHT22;34804;49.214;12.276;2022-12-11T08:46:26;-3274.90;90.50
48994;DHT22;34804;49.214;12.276;2022-12-11T08:48:54;-3274.90;90.30
48994;DHT22;34804;49.214;12.276;2022-12-11T08:51:23;-3274.90;89.80
48994;DHT22;34804;49.214;12.276;2022-12-11T08:53:56;-3274.80;89.70
48994;DHT22;34804;49.214;12.276;2022-12-11T08:56:24;-3275.00;89.50
48994;DHT22;34804;49.214;12.276;2022-12-11T08:58:51;-3275.10;89.70
48994;DHT22;34804;49.214;12.276;2022-12-11T09:01:21;-3275.10;89.50
48994;DHT22;34804;49.214;12.276;2022-12-11T09:03:49;-3275.20;89.40
48994;DHT22;34804;49.214;12.276;2022-12-11T09:06:18;-3275.20;89.10
48994;DHT22;34804;49.214;12.276;2022-12-11T09:08:47;-3275.20;89.10
48994;DHT22;34804;49.214;12.276;2022-12-11T09:11:20;-3275.40;89.40
48994;DHT22;34804;49.214;12.276;2022-12-11T09:13:48;-3275.30;88.80
48994;DHT22;34804;49.214;12.276;2022-12-11T09:16:18;-3275.30;88.50
48994;DHT22;34804;49.214;12.276;2022-12-11T09:18:47;-3275.30;88.60
48994;DHT22;34804;49.214;12.276;2022-12-11T09:21:18;-3275.40;89.40
48994;DHT22;34804;49.214;12.276;2022-12-11T09:23:45;-3275.50;88.90
48994;DHT22;34804;49.214;12.276;2022-12-11T09:26:15;-3275.50;88.00
48994;DHT22;34804;49.214;12.276;2022-12-11T09:28:43;-3275.40;88.00
48994;DHT22;34804;49.214;12.276;2022-12-11T09:31:21;-3275.40;87.60
48994;DHT22;34804;49.214;12.276;2022-12-11T09:33:50;-3275.30;88.20
48994;DHT22;34804;49.214;12.276;2022-12-11T09:36:17;-3275.40;88.30
48994;DHT22;34804;49.214;12.276;2022-12-11T09:38:45;-3275.50;88.00
48994;DHT22;34804;49.214;12.276;2022-12-11T09:41:25;-3275.60;88.50
48994;DHT22;34804;49.214;12.276;2022-12-11T09:46:38;-3275.70;87.00
48994;DHT22;34804;49.214;12.276;2022-12-11T09:52:22;-3275.80;86.70
48994;DHT22;34804;49.214;12.276;2022-12-11T09:54:53;-3275.80;86.20
48994;DHT22;34804;49.214;12.276;2022-12-11T10:02:55;-3276.00;85.50
48994;DHT22;34804;49.214;12.276;2022-12-11T10:05:36;-3276.10;84.70
48994;DHT22;34804;49.214;12.276;2022-12-11T10:11:15;-3276.30;84.90
48994;DHT22;34804;49.214;12.276;2022-12-11T10:16:53;-3276.20;83.80
48994;DHT22;34804;49.214;12.276;2022-12-11T10:19:28;-3276.30;83.80
48994;DHT22;34804;49.214;12.276;2022-12-11T10:21:55;-3276.60;84.60
48994;DHT22;34804;49.214;12.276;2022-12-11T10:27:16;-3276.50;83.80
48994;DHT22;34804;49.214;12.276;2022-12-11T10:29:46;-3276.30;85.10
48994;DHT22;34804;49.214;12.276;2022-12-11T10:32:26;-3276.20;84.70
48994;DHT22;34804;49.214;12.276;2022-12-11T10:34:59;-3276.20;84.20
48994;DHT22;34804;49.214;12.276;2022-12-11T10:37:29;-3276.10;85.30
48994;DHT22;34804;49.214;12.276;2022-12-11T10:39:56;-3276.00;86.80
48994;DHT22;34804;49.214;12.276;2022-12-11T10:42:23;-3276.00;86.30
48994;DHT22;34804;49.214;12.276;2022-12-11T10:44:59;-3275.90;83.70
48994;DHT22;34804;49.214;12.276;2022-12-11T10:47:27;-3275.90;84.50
48994;DHT22;34804;49.214;12.276;2022-12-11T10:49:56;-3275.90;84.60
48994;DHT22;34804;49.214;12.276;2022-12-11T10:52:36;-3275.80;84.30
48994;DHT22;34804;49.214;12.276;2022-12-11T10:55:06;-3275.90;84.90
48994;DHT22;34804;49.214;12.276;2022-12-11T10:57:36;-3276.00;84.30
48994;DHT22;34804;49.214;12.276;2022-12-11T11:00:06;-3276.00;84.40
48994;DHT22;34804;49.214;12.276;2022-12-11T11:02:38;-3276.00;84.00
48994;DHT22;34804;49.214;12.276;2022-12-11T11:05:15;-3276.00;84.10
48994;DHT22;34804;49.214;12.276;2022-12-11T11:07:42;-3276.00;83.60
48994;DHT22;34804;49.214;12.276;2022-12-11T11:12:39;-3276.00;83.10
48994;DHT22;34804;49.214;12.276;2022-12-11T11:15:12;-3276.00;83.10
48994;DHT22;34804;49.214;12.276;2022-12-11T11:17:46;-3276.00;82.80
48994;DHT22;34804;49.214;12.276;2022-12-11T11:20:25;-3276.00;83.20
48994;DHT22;34804;49.214;12.276;2022-12-11T11:22:55;-3276.00;83.40
48994;DHT22;34804;49.214;12.276;2022-12-11T11:25:25;-3276.00;83.50
48994;DHT22;34804;49.214;12.276;2022-12-11T11:28:07;-3276.00;82.70
48994;DHT22;34804;49.214;12.276;2022-12-11T11:30:41;-3276.00;83.00
48994;DHT22;34804;49.214;12.276;2022-12-11T11:33:21;-3275.90;84.90
48994;DHT22;34804;49.214;12.276;2022-12-11T11:35:57;-3275.90;84.60
48994;DHT22;34804;49.214;12.276;2022-12-11T11:38:35;-3275.80;85.40
48994;DHT22;34804;49.214;12.276;2022-12-11T11:41:24;-3275.70;85.70
48994;DHT22;34804;49.214;12.276;2022-12-11T11:43:58;-3275.70;86.10
48994;DHT22;34804;49.214;12.276;2022-12-11T11:46:37;-3275.70;86.90
48994;DHT22;34804;49.214;12.276;2022-12-11T11:52:06;-3275.70;87.60
48994;DHT22;34804;49.214;12.276;2022-12-11T11:55:14;-3275.80;87.80
48994;DHT22;34804;49.214;12.276;2022-12-11T12:00:25;-3276.00;87.30
48994;DHT22;34804;49.214;12.276;2022-12-11T12:03:08;-3275.90;87.30
48994;DHT22;34804;49.214;12.276;2022-12-11T12:08:57;-3275.90;87.40
48994;DHT22;34804;49.214;12.276;2022-12-11T12:14:30;-3275.90;86.30
48994;DHT22;34804;49.214;12.276;2022-12-11T12:20:11;-3275.80;85.70
48994;DHT22;34804;49.214;12.276;2022-12-11T12:23:02;-3275.80;85.70
48994;DHT22;34804;49.214;12.276;2022-12-11T12:25:58;-3275.90;85.50
48994;DHT22;34804;49.214;12.276;2022-12-11T12:34:18;-3276.20;84.40
48994;DHT22;34804;49.214;12.276;2022-12-11T12:42:09;-3276.20;82.70
48994;DHT22;34804;49.214;12.276;2022-12-11T12:47:43;-3276.20;82.60
48994;DHT22;34804;49.214;12.276;2022-12-11T12:50:25;-3276.20;81.80
48994;DHT22;34804;49.214;12.276;2022-12-11T12:52:54;-3276.20;81.80
48994;DHT22;34804;49.214;12.276;2022-12-11T12:55:27;-3276.20;81.50
48994;DHT22;34804;49.214;12.276;2022-12-11T12:57:58;-3276.10;81.30
48994;DHT22;34804;49.214;12.276;2022-12-11T13:03:16;-3276.00;81.70
48994;DHT22;34804;49.214;12.276;2022-12-11T13:06:02;-3276.00;83.20
48994;DHT22;34804;49.214;12.276;2022-12-11T13:08:49;-3276.00;83.10
48994;DHT22;34804;49.214;12.276;2022-12-11T13:11:19;-3276.00;82.50
48994;DHT22;34804;49.214;12.276;2022-12-11T13:13:48;-3276.00;82.40
48994;DHT22;34804;49.214;12.276;2022-12-11T13:16:37;-3275.90;80.30
48994;DHT22;34804;49.214;12.276;2022-12-11T13:21:56;-3276.10;81.00
48994;DHT22;34804;49.214;12.276;2022-12-11T13:24:25;-3276.00;80.30
48994;DHT22;34804;49.214;12.276;2022-12-11T13:26:53;-3276.00;80.50
48994;DHT22;34804;49.214;12.276;2022-12-11T13:29:46;-3276.00;80.70
48994;DHT22;34804;49.214;12.276;2022-12-11T13:34:51;-3275.90;80.40
48994;DHT22;34804;49.214;12.276;2022-12-11T13:37:35;-3276.00;80.80
48994;DHT22;34804;49.214;12.276;2022-12-11T13:40:08;-3276.00;80.60
48994;DHT22;34804;49.214;12.276;2022-12-11T13:42:50;-3276.00;79.80
48994;DHT22;34804;49.214;12.276;2022-12-11T13:45:26;-3276.00;80.70
48994;DHT22;34804;49.214;12.276;2022-12-11T13:47:56;-3275.90;80.30
48994;DHT22;34804;49.214;12.276;2022-12-11T13:50:29;-3275.80;80.80
48994;DHT22;34804;49.214;12.276;2022-12-11T13:52:58;-3275.80;81.10
48994;DHT22;34804;49.214;12.276;2022-12-11T13:55:32;-3275.70;80.70
48994;DHT22;34804;49.214;12.276;2022-12-11T13:57:59;-3275.70;81.80
48994;DHT22;34804;49.214;12.276;2022-12-11T14:00:28;-3275.60;81.00
48994;DHT22;34804;49.214;12.276;2022-12-11T14:03:00;-3275.60;82.00
48994;DHT22;34804;49.214;12.276;2022-12-11T14:05:29;-3275.50;81.60
48994;DHT22;34804;49.214;12.276;2022-12-11T14:07:58;-3275.60;81.80
48994;DHT22;34804;49.214;12.276;2022-12-11T14:10:30;-3275.70;82.40
48994;DHT22;34804;49.214;12.276;2022-12-11T14:13:03;-3275.70;82.00
48994;DHT22;34804;49.214;12.276;2022-12-11T14:15:32;-3275.70;82.20
48994;DHT22;34804;49.214;12.276;2022-12-11T14:18:00;-3275.70;81.30
48994;DHT22;34804;49.214;12.276;2022-12-11T14:20:29;-3275.80;81.70
48994;DHT22;34804;49.214;12.276;2022-12-11T14:23:15;-3275.90;82.20
48994;DHT22;34804;49.214;12.276;2022-12-11T14:25:54;-3276.30;80.10
48994;DHT22;34804;49.214;12.276;2022-12-11T14:28:23;-3276.50;79.80
48994;DHT22;34804;49.214;12.276;2022-12-11T14:30:56;-3276.40;78.90
48994;DHT22;34804;49.214;12.276;2022-12-11T14:33:30;-3276.40;78.90
48994;DHT22;34804;49.214;12.276;2022-12-11T14:35:59;-3276.20;80.10
48994;DHT22;34804;49.214;12.276;2022-12-11T14:38:32;-3276.10;80.10
48994;DHT22;34804;49.214;12.276;2022-12-11T14:41:13;-3276.00;80.00
48994;DHT22;34804;49.214;12.276;2022-12-11T14:43:44;-3275.70;80.50
48994;DHT22;34804;49.214;12.276;2022-12-11T14:46:21;-3275.70;80.70
48994;DHT22;34804;49.214;12.276;2022-12-11T14:48:59;-3275.60;81.30
48994;DHT22;34804;49.214;12.276;2022-12-11T14:51:34;-3275.50;81.80
48994;DHT22;34804;49.214;12.276;2022-12-11T14:54:05;-3275.50;82.70
48994;DHT22;34804;49.214;12.276;2022-12-11T14:56:33;-3275.40;82.20
48994;DHT22;34804;49.214;12.276;2022-12-11T14:59:05;-3275.40;82.50
48994;DHT22;34804;49.214;12.276;2022-12-11T15:01:34;-3275.30;83.10
48994;DHT22;34804;49.214;12.276;2022-12-11T15:04:19;-3275.30;83.30
48994;DHT22;34804;49.214;12.276;2022-12-11T15:06:49;-3275.20;83.30
48994;DHT22;34804;49.214;12.276;2022-12-11T15:09:19;-3275.10;83.50
48994;DHT22;34804;49.214;12.276;2022-12-11T15:11:48;-3275.00;83.60
48994;DHT22;34804;49.214;12.276;2022-12-11T15:14:17;-3275.00;83.60
48994;DHT22;34804;49.214;12.276;2022-12-11T15:16:45;-3274.90;83.80
48994;DHT22;34804;49.214;12.276;2022-12-11T15:19:44;-3274.90;84.00
48994;DHT22;34804;49.214;12.276;2022-12-11T15:22:13;-3274.90;84.30
48994;DHT22;34804;49.214;12.276;2022-12-11T15:24:42;-3274.90;84.30
48994;DHT22;34804;49.214;12.276;2022-12-11T15:27:36;-3274.80;85.40
48994;DHT22;34804;49.214;12.276;2022-12-11T15:30:25;-3274.70;86.00
48994;DHT22;34804;49.214;12.276;2022-12-11T15:35:36;-3274.50;86.30
48994;DHT22;34804;49.214;12.276;2022-12-11T15:38:04;-3274.50;86.50
48994;DHT22;34804;49.214;12.276;2022-12-11T15:40:32;-3274.40;86.40
48994;DHT22;34804;49.214;12.276;2022-12-11T15:43:01;-3274.40;86.50
48994;DHT22;34804;49.214;12.276;2022-12-11T15:45:28;-3274.40;86.50
48994;DHT22;34804;49.214;12.276;2022-12-11T15:47:55;-3274.40;86.40
48994;DHT22;34804;49.214;12.276;2022-12-11T15:50:25;-3274.30;86.20
48994;DHT22;34804;49.214;12.276;2022-12-11T15:52:53;-3274.20;86.40
48994;DHT22;34804;49.214;12.276;2022-12-11T15:55:22;-3274.10;86.90
48994;DHT22;34804;49.214;12.276;2022-12-11T16:00:19;-3274.00;87.50
48994;DHT22;34804;49.214;12.276;2022-12-11T16:02:46;-3274.00;88.00
48994;DHT22;34804;49.214;12.276;2022-12-11T16:05:13;-3274.00;87.70
48994;DHT22;34804;49.214;12.276;2022-12-11T16:07:41;-3274.00;87.60
48994;DHT22;34804;49.214;12.276;2022-12-11T16:10:13;-3274.00;87.70
48994;DHT22;34804;49.214;12.276;2022-12-11T16:12:40;-3274.00;87.40
48994;DHT22;34804;49.214;12.276;2022-12-11T16:15:09;-3274.10;86.70
48994;DHT22;34804;49.214;12.276;2022-12-11T16:17:38;-3274.10;86.70
48994;DHT22;34804;49.214;12.276;2022-12-11T16:20:05;-3274.10;86.70
48994;DHT22;34804;49.214;12.276;2022-12-11T16:22:33;-3274.20;86.50
48994;DHT22;34804;49.214;12.276;2022-12-11T16:24:59;-3274.20;86.20
48994;DHT22;34804;49.214;12.276;2022-12-11T16:27:26;-3274.30;85.70